createdAt,value
2023-04-15T00:01:43.379Z,5.03
2023-04-15T00:04:46.201Z,6.22
2023-04-15T00:07:48.310Z,5.55
2023-04-15T00:10:50.416Z,6.82
2023-04-15T00:13:52.132Z,6.63
2023-04-15T00:16:56.882Z,7.40
2023-04-15T00:19:58.733Z,7.65
2023-04-15T00:23:00.949Z,7.47
2023-04-15T00:26:03.955Z,6.32
2023-04-15T00:29:06.241Z,7.15
2023-04-15T00:32:10.212Z,6.93
2023-04-15T00:35:12.563Z,6.63
2023-04-15T00:38:16.252Z,6.50
2023-04-15T00:41:18.886Z,5.57
2023-04-15T00:44:20.623Z,5.78
2023-04-15T00:47:25.099Z,5.55
2023-04-15T00:50:27.226Z,5.93
2023-04-15T00:53:29.162Z,5.50
2023-04-15T00:56:32.167Z,6.50
2023-04-15T00:59:34.542Z,6.10
2023-04-15T01:02:40.585Z,5.68
2023-04-15T01:05:42.610Z,5.80
2023-04-15T01:08:45.622Z,6.05
2023-04-15T01:11:47.819Z,5.93
2023-04-15T01:14:49.905Z,6.07
2023-04-15T01:17:53.363Z,5.50
2023-04-15T01:20:56.499Z,6.35
2023-04-15T01:24:01.599Z,6.85
2023-04-15T01:27:04.782Z,6.63
2023-04-15T01:30:08.841Z,6.90
2023-04-15T01:33:12.902Z,6.75
2023-04-15T01:36:16.489Z,7.72
2023-04-15T01:39:18.259Z,7.57
2023-04-15T01:42:22.658Z,6.63
2023-04-15T01:45:24.640Z,7.57
2023-04-15T01:48:27.552Z,6.88
2023-04-15T01:51:29.319Z,7.13
2023-04-15T01:54:34.618Z,6.57
2023-04-15T01:57:38.211Z,6.38
2023-04-15T02:00:40.109Z,5.78
2023-04-15T02:03:42.373Z,6.05
2023-04-15T02:06:44.851Z,6.40
2023-04-15T02:09:47.321Z,7.15
2023-04-15T02:12:52.806Z,6.40
2023-04-15T02:15:55.431Z,5.63
2023-04-15T02:18:57.227Z,6.10
2023-04-15T02:22:01.403Z,6.20
2023-04-15T02:25:05.667Z,4.68
2023-04-15T02:28:18.293Z,5.82
2023-04-15T02:31:20.566Z,5.50
2023-04-15T02:34:22.464Z,5.93
2023-04-15T02:37:24.977Z,5.72
2023-04-15T02:40:27.256Z,7.13
2023-04-15T02:43:33.123Z,6.45
2023-04-15T02:46:34.862Z,6.57
2023-04-15T02:49:38.409Z,6.25
2023-04-15T02:52:40.222Z,6.90
2023-04-15T02:55:42.422Z,6.45
2023-04-15T02:58:47.240Z,7.05
2023-04-15T03:01:49.041Z,6.85
2023-04-15T03:04:51.082Z,5.95
2023-04-15T03:07:53.055Z,6.10
2023-04-15T03:10:55.243Z,5.60
2023-04-15T03:13:59.044Z,5.40
2023-04-15T03:17:01.473Z,5.72
2023-04-15T03:20:04.434Z,6.28
2023-04-15T03:23:08.072Z,6.30
2023-04-15T03:26:18.758Z,5.90
2023-04-15T03:29:21.973Z,6.20
2023-04-15T03:32:23.909Z,5.70
2023-04-15T03:35:28.093Z,5.13
2023-04-15T03:38:29.897Z,5.50
2023-04-15T03:41:33.076Z,5.18
2023-04-15T03:44:36.311Z,5.60
2023-04-15T03:47:39.700Z,5.50
2023-04-15T03:50:41.491Z,5.93
2023-04-15T03:53:43.596Z,5.80
2023-04-15T03:56:45.440Z,5.22
2023-04-15T03:59:50.628Z,4.65
2023-04-15T04:02:52.554Z,5.35
2023-04-15T04:05:54.791Z,4.97
2023-04-15T04:08:56.556Z,4.75
2023-04-15T04:11:59.828Z,5.20
2023-04-15T04:15:03.361Z,5.63
2023-04-15T04:18:06.148Z,5.68
2023-04-15T04:21:08.158Z,6.05
2023-04-15T04:24:10.212Z,6.28
2023-04-15T04:27:14.544Z,5.80
2023-04-15T04:30:18.102Z,5.90
2023-04-15T04:33:21.237Z,6.28
2023-04-15T04:36:23.344Z,6.85
2023-04-15T04:39:27.099Z,6.60
2023-04-15T04:42:28.941Z,6.80
2023-04-15T04:45:33.491Z,6.97
2023-04-15T04:48:35.378Z,7.03
2023-04-15T04:51:39.375Z,6.95
2023-04-15T04:54:43.497Z,7.75
2023-04-15T04:57:48.386Z,8.07
2023-04-15T05:00:51.774Z,7.07
2023-04-15T05:03:56.276Z,7.68
2023-04-15T05:06:58.448Z,7.22
2023-04-15T05:10:00.257Z,6.88
2023-04-15T05:13:02.080Z,6.32
2023-04-15T05:16:08.555Z,6.47
2023-04-15T05:19:10.468Z,5.85
2023-04-15T05:22:12.509Z,6.25
2023-04-15T05:25:15.338Z,6.53
2023-04-15T05:28:17.250Z,6.72
2023-04-15T05:31:20.823Z,6.15
2023-04-15T05:34:22.904Z,5.93
2023-04-15T05:37:24.816Z,4.40
2023-04-15T05:40:26.647Z,4.55
2023-04-15T05:43:28.716Z,4.43
2023-04-15T05:46:33.114Z,4.93
2023-04-15T05:49:34.925Z,4.20
2023-04-15T05:52:37.012Z,3.90
2023-04-15T05:55:39.040Z,4.00
2023-04-15T05:58:40.952Z,4.00
2023-04-15T06:01:44.191Z,3.70
2023-04-15T06:04:48.362Z,3.58
2023-04-15T06:07:53.169Z,3.60
2023-04-15T06:10:55.096Z,4.10
2023-04-15T06:13:56.903Z,3.67
2023-04-15T06:17:01.213Z,3.53
2023-04-15T06:20:03.300Z,4.22
2023-04-15T06:23:05.379Z,3.72
2023-04-15T06:26:09.317Z,3.45
2023-04-15T06:29:12.104Z,3.40
2023-04-15T06:32:17.820Z,3.50
2023-04-15T06:35:20.268Z,3.33
2023-04-15T06:38:22.307Z,3.60
2023-04-15T06:41:24.863Z,3.80
2023-04-15T06:44:31.545Z,3.28
2023-04-15T06:47:38.427Z,3.50
2023-04-15T06:50:40.440Z,3.33
2023-04-15T06:53:42.237Z,3.60
2023-04-15T06:56:44.081Z,3.75
2023-04-15T06:59:45.955Z,4.22
2023-04-15T07:02:49.187Z,3.75
2023-04-15T07:05:53.554Z,3.53
2023-04-15T07:08:56.317Z,3.65
2023-04-15T07:11:59.030Z,3.35
2023-04-15T07:15:01.285Z,3.40
2023-04-15T07:18:05.398Z,3.70
2023-04-15T07:21:07.602Z,3.13
2023-04-15T07:24:10.737Z,4.22
2023-04-15T07:27:12.501Z,3.72
2023-04-15T07:30:14.270Z,3.90
2023-04-15T07:33:19.544Z,2.67
2023-04-15T07:36:22.388Z,2.58
2023-04-15T07:39:24.365Z,2.13
2023-04-15T07:42:29.465Z,2.13
2023-04-15T07:45:32.106Z,1.90
2023-04-15T07:48:36.356Z,2.20
2023-04-15T07:51:39.456Z,2.50
2023-04-15T07:54:41.423Z,1.63
2023-04-15T07:57:43.528Z,1.80
2023-04-15T08:00:45.879Z,1.98
2023-04-15T08:03:49.336Z,1.42
2023-04-15T08:06:51.752Z,1.70
2023-04-15T08:09:54.034Z,1.50
2023-04-15T08:12:55.808Z,1.65
2023-04-15T08:16:14.393Z,1.48
2023-04-15T08:19:17.557Z,1.67
2023-04-15T08:22:20.560Z,1.38
2023-04-15T08:25:23.033Z,2.08
2023-04-15T08:28:26.134Z,2.03
2023-04-15T08:31:30.172Z,1.65
2023-04-15T08:34:33.533Z,1.60
2023-04-15T08:37:37.639Z,1.20
2023-04-15T08:40:42.603Z,1.20
2023-04-15T08:43:51.942Z,1.30
2023-04-15T08:46:56.269Z,1.38
2023-04-15T08:50:01.582Z,1.42
2023-04-15T08:53:03.770Z,1.38
2023-04-15T08:56:09.540Z,1.30
2023-04-15T08:59:12.044Z,1.40
2023-04-15T09:02:13.979Z,1.30
2023-04-15T09:05:17.146Z,1.52
2023-04-15T09:08:21.579Z,1.70
2023-04-15T09:11:23.654Z,1.40
2023-04-15T09:14:25.716Z,1.67
2023-04-15T09:17:27.960Z,1.80
2023-04-15T09:20:38.639Z,1.63
2023-04-15T09:23:55.784Z,2.30
2023-04-15T09:26:59.300Z,1.90
2023-04-15T09:30:01.154Z,1.67
2023-04-15T09:33:04.748Z,2.08
2023-04-15T09:36:09.101Z,1.55
2023-04-15T09:39:11.061Z,1.60
2023-04-15T09:42:12.924Z,2.28
2023-04-15T09:45:15.136Z,1.30
2023-04-15T09:48:19.800Z,1.58
2023-04-15T09:51:35.611Z,1.48
2023-04-15T09:54:38.952Z,1.77
2023-04-15T09:57:40.966Z,1.70
2023-04-15T10:00:42.933Z,2.20
2023-04-15T10:03:46.385Z,1.90
2023-04-15T10:06:50.261Z,1.77
2023-04-15T10:09:56.217Z,2.20
2023-04-15T10:12:58.438Z,2.20
2023-04-15T10:16:05.369Z,1.70
2023-04-15T10:19:09.741Z,1.88
2023-04-15T10:22:15.501Z,2.03
2023-04-15T10:25:18.590Z,2.58
2023-04-15T10:28:21.155Z,2.60
2023-04-15T10:31:23.831Z,2.58
2023-04-15T10:34:26.123Z,2.83
2023-04-15T10:37:36.192Z,3.25
2023-04-15T10:40:39.607Z,2.45
2023-04-15T10:43:48.775Z,2.70
2023-04-15T10:46:52.376Z,1.90
2023-04-15T10:49:58.652Z,2.40
2023-04-15T10:53:03.555Z,3.10
2023-04-15T10:56:06.272Z,2.22
2023-04-15T10:59:08.098Z,1.50
2023-04-15T11:02:14.364Z,1.90
2023-04-15T11:05:17.354Z,2.15
2023-04-15T11:08:41.331Z,1.98
2023-04-15T11:12:05.736Z,2.85
2023-04-15T11:15:29.434Z,3.30
2023-04-15T11:18:33.178Z,3.17
2023-04-15T11:21:36.115Z,2.58
2023-04-15T11:24:48.347Z,2.53
2023-04-15T11:27:50.689Z,2.70
2023-04-15T11:30:54.337Z,2.20
2023-04-15T11:33:57.394Z,1.70
2023-04-15T11:37:03.705Z,1.80
2023-04-15T11:40:10.266Z,1.80
2023-04-15T11:43:14.375Z,2.67
2023-04-15T11:46:16.778Z,3.08
2023-04-15T11:49:29.942Z,3.60
2023-04-15T11:52:31.992Z,3.72
2023-04-15T11:55:46.009Z,2.78
2023-04-15T11:58:50.787Z,2.97
2023-04-15T12:01:52.875Z,3.03
2023-04-15T12:05:04.495Z,3.42
2023-04-15T12:08:06.889Z,4.38
2023-04-15T12:11:10.087Z,3.80
2023-04-15T12:14:16.628Z,3.80
2023-04-15T12:17:18.962Z,3.40
2023-04-15T12:20:25.256Z,3.22
2023-04-15T12:23:27.117Z,3.50
2023-04-15T12:26:32.630Z,4.00
2023-04-15T12:29:36.114Z,4.70
2023-04-15T12:32:40.454Z,4.97
2023-04-15T12:35:44.203Z,4.65
2023-04-15T12:38:46.187Z,5.35
2023-04-15T12:41:49.413Z,4.80
2023-04-15T12:44:51.429Z,5.60
2023-04-15T12:47:53.489Z,5.60
2023-04-15T12:50:58.267Z,5.50
2023-04-15T12:54:00.167Z,5.35
2023-04-15T12:57:08.135Z,5.38
2023-04-15T13:00:11.970Z,6.38
2023-04-15T13:03:14.134Z,6.57
2023-04-15T13:06:18.740Z,6.15
2023-04-15T13:09:20.496Z,6.22
2023-04-15T13:12:23.688Z,6.18
2023-04-15T13:15:25.459Z,5.90
2023-04-15T13:18:27.441Z,6.50
2023-04-15T13:21:29.571Z,6.88
2023-04-15T13:24:31.432Z,7.57
2023-04-15T13:27:40.891Z,6.75
2023-04-15T13:30:42.648Z,7.32
2023-04-15T13:33:44.707Z,7.07
2023-04-15T13:36:47.126Z,7.47
2023-04-15T13:39:51.150Z,6.70
2023-04-15T13:42:54.584Z,5.38
2023-04-15T13:45:56.605Z,5.30
2023-04-15T13:48:58.918Z,4.82
2023-04-15T13:52:00.970Z,4.90
2023-04-15T13:55:18.575Z,5.18
2023-04-15T13:58:23.289Z,4.88
2023-04-15T14:01:25.099Z,5.75
2023-04-15T14:04:27.178Z,4.63
2023-04-15T14:07:32.309Z,4.57
2023-04-15T14:10:35.280Z,5.05
2023-04-15T14:13:38.646Z,4.85
2023-04-15T14:16:40.559Z,4.55
2023-04-15T14:19:42.701Z,4.85
2023-04-15T14:22:44.701Z,5.03
2023-04-15T14:25:48.348Z,4.70
2023-04-15T14:28:52.122Z,5.10
2023-04-15T14:32:04.063Z,4.95
2023-04-15T14:35:14.399Z,5.07
2023-04-15T14:38:17.070Z,4.28
2023-04-15T14:41:19.424Z,5.60
2023-04-15T14:44:22.980Z,5.18
2023-04-15T14:47:25.823Z,5.07
2023-04-15T14:50:28.819Z,5.22
2023-04-15T14:53:30.854Z,5.10
2023-04-15T14:56:34.375Z,6.07
2023-04-15T14:59:40.883Z,5.93
2023-04-15T15:02:42.916Z,5.50
2023-04-15T15:05:49.866Z,6.15
2023-04-15T15:08:51.923Z,5.63
2023-04-15T15:11:54.029Z,5.45
2023-04-15T15:15:02.989Z,5.60
2023-04-15T15:18:07.691Z,6.38
2023-04-15T15:21:09.701Z,5.90
2023-04-15T15:24:14.488Z,6.18
2023-04-15T15:27:16.774Z,5.53
2023-04-15T15:30:20.389Z,5.80
2023-04-15T15:33:22.428Z,6.03
2023-04-15T15:36:25.282Z,6.50
2023-04-15T15:39:28.109Z,5.78
2023-04-15T15:42:32.193Z,6.40
2023-04-15T15:45:40.912Z,6.70
2023-04-15T15:48:42.956Z,7.35
2023-04-15T15:51:45.545Z,7.85
2023-04-15T15:54:48.732Z,6.90
2023-04-15T15:57:50.585Z,7.00
2023-04-15T16:00:54.227Z,7.75
2023-04-15T16:03:56.491Z,7.93
2023-04-15T16:06:58.705Z,7.90
2023-04-15T16:10:01.323Z,7.65
2023-04-15T16:13:03.170Z,7.25
2023-04-15T16:16:07.574Z,7.07
2023-04-15T16:19:09.471Z,7.50
2023-04-15T16:22:12.042Z,7.25
2023-04-15T16:25:14.201Z,7.43
2023-04-15T16:28:26.266Z,7.15
2023-04-15T16:31:31.295Z,7.53
2023-04-15T16:34:33.544Z,7.25
2023-04-15T16:37:36.171Z,8.10
2023-04-15T16:40:38.418Z,7.63
2023-04-15T16:43:40.859Z,7.85
2023-04-15T16:46:44.608Z,8.30
2023-04-15T16:49:47.010Z,7.75
2023-04-15T16:52:48.956Z,7.90
2023-04-15T16:55:51.357Z,7.60
2023-04-15T16:58:53.221Z,7.88
2023-04-15T17:01:58.667Z,7.43
2023-04-15T17:05:02.539Z,7.25
2023-04-15T17:08:04.556Z,6.65
2023-04-15T17:11:07.313Z,7.20
2023-04-15T17:14:09.939Z,6.72
2023-04-15T17:17:14.348Z,7.00
2023-04-15T17:20:16.714Z,7.15
2023-04-15T17:23:20.208Z,5.97
2023-04-15T17:26:25.211Z,7.65
2023-04-15T17:29:27.400Z,7.90
2023-04-15T17:32:32.034Z,7.20
2023-04-15T17:35:35.940Z,7.82
2023-04-15T17:38:38.261Z,6.13
2023-04-15T17:41:40.156Z,7.18
2023-04-15T17:44:42.955Z,6.65
2023-04-15T17:47:49.537Z,5.50
2023-04-15T17:50:52.104Z,6.45
2023-04-15T17:53:54.883Z,6.63
2023-04-15T17:57:00.066Z,6.60
2023-04-15T18:00:02.745Z,6.78
2023-04-15T18:03:07.075Z,6.28
2023-04-15T18:06:11.710Z,5.85
2023-04-15T18:09:14.941Z,6.07
2023-04-15T18:12:16.748Z,5.80
2023-04-15T18:15:19.550Z,6.05
2023-04-15T18:18:27.569Z,6.28
2023-04-15T18:21:29.996Z,5.15
2023-04-15T18:24:34.946Z,4.80
2023-04-15T18:27:37.240Z,4.93
2023-04-15T18:30:40.630Z,4.50
2023-04-15T18:33:44.900Z,4.55
2023-04-15T18:36:47.722Z,4.60
2023-04-15T18:39:50.124Z,4.75
2023-04-15T18:42:52.804Z,4.68
2023-04-15T18:45:58.729Z,4.93
2023-04-15T18:49:05.435Z,4.68
2023-04-15T18:52:10.248Z,5.18
2023-04-15T18:55:12.448Z,5.72
2023-04-15T18:58:14.893Z,5.40
2023-04-15T19:01:17.449Z,5.93
2023-04-15T19:04:25.774Z,5.63
2023-04-15T19:07:28.390Z,5.93
2023-04-15T19:10:30.737Z,6.25
2023-04-15T19:13:34.894Z,6.78
2023-04-15T19:16:37.135Z,6.18
2023-04-15T19:19:45.558Z,6.80
2023-04-15T19:22:48.537Z,6.50
2023-04-15T19:25:52.964Z,6.28
2023-04-15T19:28:55.916Z,6.43
2023-04-15T19:31:58.203Z,5.45
2023-04-15T19:35:02.101Z,5.85
2023-04-15T19:38:06.804Z,5.15
2023-04-15T19:41:11.089Z,4.80
2023-04-15T19:44:15.363Z,4.88
2023-04-15T19:47:18.293Z,5.25
2023-04-15T19:50:23.475Z,3.22
2023-04-15T19:53:30.789Z,3.13
2023-04-15T19:56:34.486Z,2.30
2023-04-15T19:59:37.585Z,1.88
2023-04-15T20:02:42.196Z,1.80
2023-04-15T20:05:49.641Z,1.95
2023-04-15T20:08:53.967Z,2.00
2023-04-15T20:12:44.862Z,2.42
2023-04-15T20:15:25.703Z,3.08
2023-04-15T20:18:28.781Z,3.05
2023-04-15T20:21:32.500Z,3.33
2023-04-15T20:24:36.250Z,3.35
2023-04-15T20:27:38.849Z,2.85
2023-04-15T20:30:42.170Z,2.95
2023-04-15T20:33:44.046Z,3.17
2023-04-15T20:36:48.682Z,3.30
2023-04-15T20:39:51.002Z,3.17
2023-04-15T20:42:57.887Z,3.20
2023-04-15T20:46:07.034Z,3.25
2023-04-15T20:49:19.771Z,3.40
2023-04-15T20:52:25.255Z,3.05
2023-04-15T20:55:30.568Z,2.10
2023-04-15T20:58:33.915Z,1.90
2023-04-15T21:01:37.510Z,2.25
2023-04-15T21:04:40.496Z,2.30
2023-04-15T21:07:44.678Z,2.35
2023-04-15T21:10:47.225Z,2.20
2023-04-15T21:13:49.357Z,1.63
2023-04-15T21:16:52.151Z,1.48
2023-04-15T21:19:54.293Z,2.00
2023-04-15T21:22:59.776Z,2.10
2023-04-15T21:26:02.276Z,2.10
2023-04-15T21:29:05.892Z,2.60
2023-04-15T21:32:09.406Z,2.33
2023-04-15T21:35:11.311Z,2.88
2023-04-15T21:38:14.907Z,3.60
2023-04-15T21:41:16.902Z,3.35
2023-04-15T21:44:18.820Z,3.10
2023-04-15T21:47:20.883Z,3.20
2023-04-15T21:50:23.082Z,3.13
2023-04-15T21:53:26.277Z,2.70
2023-04-15T21:56:28.061Z,2.90
2023-04-15T21:59:30.003Z,3.05
2023-04-15T22:02:31.992Z,3.00
2023-04-15T22:05:35.373Z,2.65
2023-04-15T22:08:48.787Z,2.75
2023-04-15T22:11:58.142Z,2.70
2023-04-15T22:14:59.936Z,3.00
2023-04-15T22:18:04.923Z,3.03
2023-04-15T22:21:07.045Z,3.10
2023-04-15T22:24:38.993Z,4.40
2023-04-15T22:27:35.370Z,4.00
2023-04-15T22:30:37.832Z,4.47
2023-04-15T22:33:40.459Z,4.63
2023-04-15T22:36:42.822Z,4.80
2023-04-15T22:39:46.639Z,5.00
2023-04-15T22:42:49.361Z,5.78
2023-04-15T22:45:51.404Z,4.57
2023-04-15T22:48:53.242Z,4.63
2023-04-15T22:51:55.013Z,4.35
2023-04-15T22:55:00.021Z,5.25
2023-04-15T22:58:04.143Z,4.10
2023-04-15T23:01:05.957Z,3.90
2023-04-15T23:04:22.880Z,4.32
2023-04-15T23:07:27.628Z,4.30
2023-04-15T23:10:30.937Z,3.88
2023-04-15T23:13:33.819Z,3.40
2023-04-15T23:16:35.909Z,3.85
2023-04-15T23:19:37.693Z,3.88
2023-04-15T23:22:40.396Z,2.90
2023-04-15T23:25:43.660Z,2.15
2023-04-15T23:28:45.495Z,1.73
2023-04-15T23:31:47.872Z,1.50
2023-04-15T23:34:49.661Z,1.52
2023-04-15T23:37:52.992Z,1.20
2023-04-15T23:40:56.528Z,1.73
2023-04-15T23:43:58.616Z,1.40
2023-04-15T23:47:00.498Z,1.17
2023-04-15T23:50:05.226Z,1.00
2023-04-15T23:53:07.458Z,0.85
2023-04-15T23:56:10.724Z,0.90
2023-04-15T23:59:12.580Z,1.20
